Time;durP1;ratioP1;P1;durP2;ratioP2;P2;SDS_P1;SDS_P2;PMS_P1;PMS_P2;Temp;Humidity;BMP_temperature;BMP_pressure;BME280_temperature;BME280_humidity;BME280_pressure;Samples;Min_cycle;Max_cycle;Signal;HPM_P1;HPM_P2
2023/01/14 00:11:05;;;;;;;16.35;7.00;;;;;;;3.24;78.36;101502.50;5166048;22;20073;-93
2023/01/14 00:22:36;;;;;;;17.63;7.93;;;;;;;3.42;78.66;101545.72;5344306;23;20057;-90
2023/01/14 00:27:46;;;;;;;15.30;8.05;;;;;;;3.37;78.83;101531.84;5033539;22;20056;-91
2023/01/14 00:30:19;;;;;;;15.75;8.10;;;;;;;3.41;78.53;101528.03;4974878;28;20073;-89
2023/01/14 00:33:08;;;;;;;13.30;7.03;;;;;;;3.22;77.68;101516.81;4979974;28;20085;-90
2023/01/14 00:35:37;;;;;;;13.90;7.13;;;;;;;3.14;78.25;101514.63;5017961;28;20098;-89
2023/01/14 00:44:15;;;;;;;14.00;6.88;;;;;;;3.41;78.54;101541.34;5059304;23;20072;-90
2023/01/14 00:47:04;;;;;;;14.40;7.03;;;;;;;3.45;78.33;101556.16;5051685;28;20046;-88
2023/01/14 00:49:34;;;;;;;14.98;7.10;;;;;;;3.44;78.26;101542.94;5016877;28;20089;-89
2023/01/14 00:52:19;;;;;;;18.83;7.63;;;;;;;3.29;78.78;101550.91;4997751;28;20133;-87
2023/01/14 00:55:10;;;;;;;15.05;7.97;;;;;;;3.19;78.82;101532.97;4993167;28;20035;-87
2023/01/14 00:58:16;;;;;;;14.30;7.45;;;;;;;3.23;78.97;101534.47;4999922;28;20121;-89
2023/01/14 01:00:45;;;;;;;20.77;6.95;;;;;;;2.93;79.49;101506.16;4994140;28;20034;-87
2023/01/14 01:05:51;;;;;;;13.70;7.33;;;;;;;2.90;80.28;101539.06;5062154;23;20046;-89
2023/01/14 01:08:49;;;;;;;14.90;6.90;;;;;;;2.75;79.81;101508.06;5027883;23;20109;-88
2023/01/14 01:11:45;;;;;;;13.70;6.35;;;;;;;2.68;79.81;101486.34;5617797;23;20312;-88
2023/01/14 01:14:50;;;;;;;13.20;6.63;;;;;;;2.88;79.75;101516.16;5057845;23;20118;-90
2023/01/14 01:18:06;;;;;;;12.68;6.40;;;;;;;2.87;79.63;101485.25;5195240;23;20057;-90
2023/01/14 01:20:34;;;;;;;12.68;6.78;;;;;;;2.96;79.89;101509.47;5143094;23;20054;-93
2023/01/14 01:23:16;;;;;;;13.25;6.93;;;;;;;2.88;79.60;101477.19;5167620;23;20057;-90
2023/01/14 01:26:10;;;;;;;12.32;6.43;;;;;;;3.08;79.32;101499.06;5007183;28;20432;-91
2023/01/14 01:31:29;;;;;;;10.80;5.60;;;;;;;3.05;79.31;101505.41;5014696;28;20117;-89
2023/01/14 01:34:00;;;;;;;11.00;5.80;;;;;;;3.07;79.05;101498.22;5167022;23;20061;-91
2023/01/14 01:36:31;;;;;;;10.70;5.88;;;;;;;2.83;79.71;101489.03;5026207;23;20173;-91
2023/01/14 01:39:17;;;;;;;10.95;5.85;;;;;;;2.75;80.40;101486.84;5040738;23;20060;-88
2023/01/14 01:42:54;;;;;;;12.73;6.00;;;;;;;2.85;79.97;101479.16;5069428;23;20035;-90
2023/01/14 01:46:02;;;;;;;9.57;5.35;;;;;;;3.11;79.83;101502.41;4973975;28;20038;-88
2023/01/14 01:48:55;;;;;;;10.18;5.65;;;;;;;3.03;80.07;101501.13;4962803;26;20046;-87
2023/01/14 01:52:01;;;;;;;10.40;5.40;;;;;;;3.19;79.41;101506.41;5010039;28;20057;-88
2023/01/14 01:57:22;;;;;;;11.10;5.93;;;;;;;3.17;79.67;101487.88;5133388;23;20078;-88
2023/01/14 02:06:10;;;;;;;10.82;5.78;;;;;;;3.21;79.54;101496.50;4812578;23;20121;-89
2023/01/14 02:08:59;;;;;;;12.63;5.97;;;;;;;2.96;79.55;101453.69;5099052;23;20058;-90
2023/01/14 02:11:56;;;;;;;10.52;5.75;;;;;;;3.17;79.43;101477.25;5002815;28;20034;-87
2023/01/14 02:14:55;;;;;;;12.65;6.25;;;;;;;3.31;79.00;101500.31;5005299;28;20046;-88
2023/01/14 02:17:49;;;;;;;10.43;5.78;;;;;;;3.33;78.85;101493.97;5040653;23;21865;-87
2023/01/14 02:23:23;;;;;;;11.27;6.07;;;;;;;3.33;78.72;101488.66;5017731;28;20042;-87
2023/01/14 02:26:43;;;;;;;10.60;5.38;;;;;;;3.29;78.66;101496.91;5012085;28;20053;-89
2023/01/14 02:30:04;;;;;;;11.95;5.80;;;;;;;3.17;79.02;101498.50;4928274;29;20167;-86
2023/01/14 02:33:10;;;;;;;11.50;5.70;;;;;;;3.04;79.71;101492.22;4960352;28;20050;-89
2023/01/14 02:39:18;;;;;;;11.00;5.30;;;;;;;2.72;79.86;101444.53;5538410;23;20053;-90
2023/01/14 02:45:20;;;;;;;10.07;4.82;;;;;;;2.93;80.01;101461.00;5096796;23;20054;-89
2023/01/14 04:31:15;;;;;;;8.57;4.82;;;;;;;2.60;80.60;101507.19;3976398;23;20038;-91
2023/01/14 04:33:54;;;;;;;9.05;5.32;;;;;;;2.57;80.88;101488.75;4993438;28;20070;-91
2023/01/14 04:37:07;;;;;;;11.70;5.28;;;;;;;2.56;81.04;101497.69;5004847;28;20050;-88
2023/01/14 04:39:56;;;;;;;10.02;5.55;;;;;;;2.54;81.19;101512.84;5010595;28;20057;-89
2023/01/14 04:45:00;;;;;;;10.33;5.47;;;;;;;2.60;81.51;101517.81;5313498;23;20038;-90
2023/01/14 04:47:27;;;;;;;10.80;5.68;;;;;;;2.67;81.21;101520.94;5154504;23;20041;-91
2023/01/14 04:50:41;;;;;;;10.68;5.68;;;;;;;2.38;82.27;101501.38;5050455;23;20047;-89
2023/01/14 04:53:15;;;;;;;10.27;5.50;;;;;;;2.35;81.79;101504.22;4991460;28;20031;-87
2023/01/14 04:55:45;;;;;;;;;;;;;;;2.61;81.79;101535.44;4997714;28;20027;-90
2023/01/14 04:58:14;;;;;;;9.57;5.07;;;;;;;2.42;81.93;101510.88;4970109;28;19926;-88
2023/01/14 05:00:42;;;;;;;10.48;5.15;;;;;;;2.36;81.66;101497.97;4989521;28;20099;-87
2023/01/14 05:03:36;;;;;;;10.10;5.20;;;;;;;2.77;80.96;101535.41;5010164;28;20477;-89
2023/01/14 05:06:02;;;;;;;9.68;5.40;;;;;;;2.75;80.78;101530.16;4994917;28;20053;-90
2023/01/14 05:08:56;;;;;;;11.07;5.30;;;;;;;2.74;81.10;101533.78;5217839;23;20055;-90
2023/01/14 05:11:25;;;;;;;11.55;4.80;;;;;;;2.77;80.59;101532.75;4996988;28;20049;-89
2023/01/14 05:13:55;;;;;;;12.57;5.40;;;;;;;2.64;81.07;101515.81;5008809;28;20041;-88
2023/01/14 05:16:27;;;;;;;14.13;8.55;;;;;;;2.68;81.29;101534.13;4978428;28;20034;-88
2023/01/14 05:18:58;;;;;;;11.18;5.30;;;;;;;2.61;81.50;101524.81;5003659;28;20038;-90
2023/01/14 05:21:27;;;;;;;12.88;5.93;;;;;;;2.59;82.19;101531.16;5310665;23;20069;-89
2023/01/14 05:24:26;;;;;;;13.73;6.07;;;;;;;2.64;82.05;101532.59;5001422;23;20102;-89
2023/01/14 05:26:56;;;;;;;10.15;5.13;;;;;;;2.70;81.90;101536.72;5002116;23;20046;-87
2023/01/14 05:29:23;;;;;;;10.45;5.57;;;;;;;2.67;81.79;101515.63;4939210;28;20043;-87
2023/01/14 05:31:53;;;;;;;12.02;5.68;;;;;;;2.62;81.85;101530.97;4948969;29;20053;-85
2023/01/14 05:34:41;;;;;;;13.27;5.45;;;;;;;2.65;81.73;101523.69;4965464;28;20031;-93
2023/01/14 05:40:26;;;;;;;14.17;6.30;;;;;;;2.79;81.54;101533.50;1766147;23;20098;-89
2023/01/14 05:45:48;;;;;;;12.52;6.28;;;;;;;2.81;81.53;101534.28;5006439;28;20045;-88
2023/01/14 05:48:17;;;;;;;12.82;5.90;;;;;;;2.71;82.18;101525.13;5009484;28;20029;-87
2023/01/14 05:50:48;;;;;;;12.13;5.97;;;;;;;2.80;81.39;101526.41;5008264;28;20026;-87
2023/01/14 05:53:15;;;;;;;11.20;5.28;;;;;;;2.87;81.38;101533.06;5012539;28;20033;-88
2023/01/14 05:55:46;;;;;;;11.45;5.68;;;;;;;3.00;80.89;101534.06;5021738;28;20106;-87
2023/01/14 05:58:21;;;;;;;11.18;5.47;;;;;;;2.89;81.13;101532.03;4995009;28;20038;-89
2023/01/14 06:06:28;;;;;;;16.05;6.93;;;;;;;2.98;80.74;101525.31;5020071;28;20128;-87
2023/01/14 06:09:01;;;;;;;14.55;6.88;;;;;;;3.01;81.22;101540.22;5009651;28;20036;-86
2023/01/14 06:11:29;;;;;;;15.98;6.50;;;;;;;2.85;80.64;101503.06;4976752;28;20118;-87
2023/01/14 06:13:59;;;;;;;12.43;6.03;;;;;;;3.12;80.13;101533.31;4992049;28;20362;-86
2023/01/14 06:16:27;;;;;;;12.40;5.75;;;;;;;2.89;79.82;101517.91;5030870;28;20038;-87
2023/01/14 06:19:03;;;;;;;13.55;6.97;;;;;;;2.98;80.41;101541.25;5024992;28;20038;-86
2023/01/14 06:21:32;;;;;;;23.83;10.43;;;;;;;2.89;80.59;101532.03;5037720;28;20408;-87
2023/01/14 06:24:01;;;;;;;11.07;6.65;;;;;;;2.92;79.93;101538.94;5003464;28;20163;-88
2023/01/14 06:26:30;;;;;;;11.13;5.32;;;;;;;2.91;79.61;101529.28;5013406;28;20114;-86
2023/01/14 06:29:07;;;;;;;10.43;5.35;;;;;;;2.96;80.05;101543.16;5017137;28;20367;-87
2023/01/14 06:31:33;;;;;;;11.13;5.55;;;;;;;3.04;79.49;101524.94;4997709;28;20061;-87
2023/01/14 06:34:01;;;;;;;12.32;5.65;;;;;;;3.11;79.01;101539.59;4975318;28;20050;-87
2023/01/14 06:36:44;;;;;;;10.65;5.70;;;;;;;3.14;79.23;101541.22;4993198;28;20093;-88
2023/01/14 06:39:47;;;;;;;16.45;5.72;;;;;;;2.92;79.81;101523.00;5014223;28;20037;-91
2023/01/14 06:51:17;;;;;;;15.60;6.97;;;;;;;3.31;78.77;101522.44;5004127;28;20129;-91
2023/01/14 06:58:52;;;;;;;14.85;7.20;;;;;;;3.45;78.65;101532.22;5003502;28;20041;-88
2023/01/14 07:01:19;;;;;;;13.45;6.53;;;;;;;3.43;78.47;101528.81;4968005;28;20058;-88
2023/01/14 07:03:47;;;;;;;10.93;5.80;;;;;;;3.33;78.03;101506.41;4999839;28;20050;-87
2023/01/14 07:06:13;;;;;;;12.02;6.50;;;;;;;3.60;77.94;101535.75;4984226;28;20153;-84
2023/01/14 07:08:38;;;;;;;12.73;6.40;;;;;;;3.78;77.12;101536.41;4965732;28;20042;-85
2023/01/14 07:11:07;;;;;;;12.97;5.70;;;;;;;3.89;76.61;101541.09;4999546;28;20355;-87
2023/01/14 07:13:35;;;;;;;10.65;5.68;;;;;;;3.88;76.24;101534.03;4999071;28;20038;-86
2023/01/14 07:16:07;;;;;;;10.70;5.60;;;;;;;3.71;76.16;101529.78;5022914;28;20042;-87
2023/01/14 07:18:39;;;;;;;9.80;4.95;;;;;;;3.84;76.58;101541.38;5031422;28;20030;-91
2023/01/14 07:21:05;;;;;;;9.90;5.35;;;;;;;3.79;76.61;101549.63;4988299;28;20042;-86
2023/01/14 07:23:36;;;;;;;13.18;5.82;;;;;;;3.91;76.58;101549.78;4988673;28;20050;-86
2023/01/14 07:26:06;;;;;;;11.00;4.95;;;;;;;4.02;75.36;101550.81;4999193;28;20109;-87
2023/01/14 07:28:41;;;;;;;9.15;5.13;;;;;;;4.00;75.62;101547.44;5002203;28;20053;-89
2023/01/14 07:31:10;;;;;;;11.98;5.22;;;;;;;3.98;75.69;101536.03;4990677;28;20034;-88
2023/01/14 07:33:38;;;;;;;10.40;4.80;;;;;;;4.02;74.78;101537.53;4980774;28;20062;-83
2023/01/14 07:36:04;;;;;;;11.70;5.95;;;;;;;3.98;75.39;101529.84;5021160;23;20080;-89
2023/01/14 07:38:31;;;;;;;14.05;5.18;;;;;;;4.16;75.37;101549.09;4989915;28;20051;-86
2023/01/14 07:40:57;;;;;;;9.73;4.85;;;;;;;4.26;74.32;101562.69;5006245;28;20459;-85
2023/01/14 07:43:25;;;;;;;9.23;4.80;;;;;;;3.96;74.29;101531.75;5025702;28;20065;-85
2023/01/14 07:45:51;;;;;;;9.02;4.70;;;;;;;4.19;74.36;101571.06;5028075;28;20335;-88
2023/01/14 07:48:30;;;;;;;9.23;5.07;;;;;;;4.00;74.31;101558.09;4994445;28;20042;-89
2023/01/14 07:51:05;;;;;;;8.18;4.70;;;;;;;4.03;74.88;101562.34;5033982;28;20033;-87
2023/01/14 07:53:33;;;;;;;11.05;5.00;;;;;;;4.05;74.42;101564.91;5011911;28;20064;-87
2023/01/14 07:56:00;;;;;;;9.20;5.10;;;;;;;4.01;74.45;101565.09;5026154;28;20038;-87
2023/01/14 07:58:27;;;;;;;11.77;6.25;;;;;;;4.21;74.18;101581.59;4994270;28;20097;-89
2023/01/14 08:00:53;;;;;;;9.88;5.28;;;;;;;4.26;74.18;101574.22;4994819;28;20037;-86
2023/01/14 08:03:21;;;;;;;9.80;5.15;;;;;;;4.25;73.97;101568.97;5034787;28;20080;-89
2023/01/14 08:05:48;;;;;;;12.43;5.85;;;;;;;4.34;73.94;101587.03;5010566;28;20041;-88
2023/01/14 08:08:15;;;;;;;10.27;5.35;;;;;;;4.34;73.83;101587.03;5014207;28;20042;-89
2023/01/14 08:10:42;;;;;;;9.38;5.22;;;;;;;4.37;73.42;101579.69;5003550;28;20029;-88
2023/01/14 08:16:13;;;;;;;8.60;4.97;;;;;;;4.12;73.38;101558.22;5201471;22;20062;-87
2023/01/14 08:18:42;;;;;;;9.32;4.88;;;;;;;4.23;72.88;101553.09;5196538;23;20053;-92
2023/01/14 08:21:21;;;;;;;8.60;4.68;;;;;;;4.33;72.31;101559.56;5008133;28;20116;-88
2023/01/14 08:24:03;;;;;;;10.45;5.25;;;;;;;4.26;72.77;101550.25;5017573;28;20034;-87
2023/01/14 08:26:49;;;;;;;12.98;6.25;;;;;;;4.26;73.56;101562.69;5108119;23;20068;-88
2023/01/14 08:32:35;;;;;;;10.83;5.63;;;;;;;4.50;73.51;101584.25;5478001;22;20042;-88
2023/01/14 08:35:21;;;;;;;14.50;5.72;;;;;;;4.72;72.49;101589.84;5000321;28;20050;-89
2023/01/14 08:37:48;;;;;;;14.18;5.90;;;;;;;4.71;72.70;101587.31;4991079;28;20046;-89
2023/01/14 08:40:20;;;;;;;12.52;5.53;;;;;;;4.74;72.85;101592.44;4988325;28;20419;-86
2023/01/14 08:42:50;;;;;;;13.45;6.88;;;;;;;4.41;73.02;101578.53;5000459;28;20057;-88
2023/01/14 08:45:16;;;;;;;12.25;6.25;;;;;;;4.48;73.14;101580.81;4994445;28;20069;-83
2023/01/14 08:47:42;;;;;;;11.18;6.00;;;;;;;4.64;72.76;101587.69;4993356;28;20492;-84
2023/01/14 08:50:20;;;;;;;15.45;6.53;;;;;;;4.65;72.79;101575.22;4986431;28;20046;-87
2023/01/14 08:52:46;;;;;;;14.60;6.30;;;;;;;4.45;73.51;101576.53;4989204;28;20042;-89
2023/01/14 08:55:13;;;;;;;13.25;6.18;;;;;;;4.65;73.36;101585.88;4989597;28;20030;-87
2023/01/14 08:57:39;;;;;;;10.57;5.53;;;;;;;4.80;72.72;101587.56;4978983;28;20034;-88
2023/01/14 09:00:07;;;;;;;12.80;6.43;;;;;;;4.63;72.90;101566.47;4974844;28;20123;-86
2023/01/14 09:02:34;;;;;;;11.55;6.60;;;;;;;4.75;73.01;101564.81;4964629;28;20031;-88
2023/01/14 09:05:01;;;;;;;13.48;6.57;;;;;;;4.66;73.38;101563.63;4978625;28;20492;-87
2023/01/14 09:18:52;;;;;;;13.48;5.90;;;;;;;4.88;71.90;101559.56;4969274;28;20095;-89
2023/01/14 09:21:23;;;;;;;13.57;6.43;;;;;;;4.76;72.16;101554.06;4958246;28;20073;-88
2023/01/14 09:24:19;;;;;;;11.30;6.75;;;;;;;4.66;72.64;101545.00;4973048;28;20030;-85
2023/01/14 09:26:48;;;;;;;10.52;5.25;;;;;;;4.51;72.86;101514.03;5009674;28;20046;-89
2023/01/14 09:29:14;;;;;;;14.33;5.70;;;;;;;4.61;72.69;101539.09;5011996;28;20038;-86
2023/01/14 09:32:18;;;;;;;13.00;5.93;;;;;;;4.78;72.59;101546.84;5008662;28;20035;-90
2023/01/14 09:37:43;;;;;;;9.75;5.50;;;;;;;4.75;72.49;101544.38;5407369;23;20045;-87
2023/01/14 09:40:16;;;;;;;11.38;5.50;;;;;;;4.78;73.33;101541.50;5012095;28;20053;-87
2023/01/14 09:43:42;;;;;;;11.45;5.72;;;;;;;4.89;73.40;101540.78;4998265;28;20041;-87
2023/01/14 09:46:12;;;;;;;11.32;5.75;;;;;;;4.92;72.88;101537.09;5017755;28;20124;-83
2023/01/14 09:49:05;;;;;;;10.80;5.95;;;;;;;4.72;73.29;101528.59;5018450;28;20057;-91
2023/01/14 09:52:03;;;;;;;13.60;6.00;;;;;;;5.06;73.02;101539.66;4999414;28;20045;-89
2023/01/14 09:54:47;;;;;;;13.55;5.93;;;;;;;4.88;73.13;101506.25;5031592;28;20030;-88
2023/01/14 09:57:27;;;;;;;9.98;5.50;;;;;;;5.08;71.57;101517.28;5017585;28;20042;-87
2023/01/14 10:00:34;;;;;;;9.48;5.63;;;;;;;5.13;71.64;101519.63;5043851;23;20050;-90
2023/01/14 10:06:16;;;;;;;10.40;5.47;;;;;;;4.73;73.19;101485.03;4993459;28;20075;-90
2023/01/14 10:14:16;;;;;;;12.33;6.00;;;;;;;4.81;73.69;101506.66;5711061;23;20300;31
2023/01/14 10:17:09;;;;;;;11.13;5.45;;;;;;;4.78;73.25;101471.41;5028759;23;20088;-89
2023/01/14 10:20:16;;;;;;;13.55;5.60;;;;;;;4.92;73.45;101486.44;4991773;28;20039;-86
2023/01/14 10:23:11;;;;;;;12.30;5.97;;;;;;;4.94;73.13;101493.38;4973036;28;20035;-87
2023/01/14 10:25:53;;;;;;;10.60;5.45;;;;;;;4.86;73.48;101493.88;4966322;28;20217;-86
2023/01/14 10:28:59;;;;;;;11.85;5.88;;;;;;;4.93;73.03;101498.81;4968170;28;20039;-86
2023/01/14 10:32:06;;;;;;;11.98;5.28;;;;;;;5.03;74.23;101491.88;4985144;28;20046;-88
2023/01/14 10:34:51;;;;;;;11.25;5.78;;;;;;;4.83;73.66;101494.09;4988649;28;20097;-88
2023/01/14 10:37:41;;;;;;;11.07;5.50;;;;;;;4.81;74.12;101488.00;4957137;28;20027;-90
2023/01/14 10:40:17;;;;;;;11.23;5.65;;;;;;;4.48;75.00;101477.81;4961358;28;20070;-87
2023/01/14 10:42:45;;;;;;;14.07;6.50;;;;;;;4.86;74.59;101480.56;4973613;28;20038;-88
2023/01/14 10:45:16;;;;;;;12.63;7.07;;;;;;;4.74;74.48;101467.22;4969946;28;20063;-89
2023/01/14 10:50:23;;;;;;;11.88;6.80;;;;;;;4.86;74.29;101456.56;5041910;23;20471;-88
2023/01/14 10:53:31;;;;;;;9.25;5.50;;;;;;;4.87;74.46;101465.44;4992905;28;20049;-88
2023/01/14 10:56:00;;;;;;;14.30;6.07;;;;;;;5.07;74.27;101448.06;4999874;28;20045;-89
2023/01/14 10:58:34;;;;;;;19.85;5.90;;;;;;;5.17;74.18;101461.59;4958840;28;20050;-84
2023/01/14 11:01:23;;;;;;;10.20;5.68;;;;;;;5.28;74.09;101467.06;4994814;28;20030;-87
2023/01/14 11:03:49;;;;;;;14.98;6.18;;;;;;;5.40;74.16;101457.34;4990625;28;20039;-87
2023/01/14 11:12:00;;;;;;;11.95;6.90;;;;;;;4.97;74.18;101426.53;5009221;28;20305;-92
2023/01/14 11:15:03;;;;;;;11.63;6.07;;;;;;;5.18;73.79;101431.34;5015486;28;20034;-90
2023/01/14 11:21:23;;;;;;;14.82;6.22;;;;;;;5.21;74.09;101412.47;4858291;23;20041;-92
2023/01/14 11:26:38;;;;;;;13.00;6.35;;;;;;;5.15;74.33;101445.75;4972654;28;20055;-89
2023/01/14 11:29:19;;;;;;;12.02;6.00;;;;;;;5.40;74.43;101454.69;4958744;28;20045;-89
2023/01/14 11:32:19;;;;;;;17.20;7.25;;;;;;;5.34;74.53;101455.97;4968605;28;20055;-90
2023/01/14 11:35:44;;;;;;;13.85;7.22;;;;;;;5.27;73.65;101423.56;4960544;28;20039;-90
2023/01/14 11:38:16;;;;;;;15.95;6.50;;;;;;;5.43;73.24;101439.31;4863958;29;20045;-88
2023/01/14 11:43:29;;;;;;;;;;;;;;;5.34;73.65;101461.31;4954322;28;20079;-87
2023/01/14 11:46:12;;;;;;;7.43;3.85;;;;;;;5.28;72.86;101441.22;5063768;23;19971;-87
2023/01/14 11:51:20;;;;;;;9.32;4.57;;;;;;;5.13;74.19;101460.97;5025005;28;20058;-90
2023/01/14 11:53:56;;;;;;;10.98;5.20;;;;;;;5.16;74.25;101452.75;5025831;28;20038;-88
2023/01/14 12:00:02;;;;;;;10.45;4.95;;;;;;;5.18;73.63;101452.66;3099547;23;20058;-89
2023/01/14 12:02:49;;;;;;;12.02;6.38;;;;;;;5.19;73.28;101457.03;4986617;28;20043;-86
2023/01/14 12:05:21;;;;;;;13.80;6.20;;;;;;;5.22;72.60;101428.34;4936210;28;20027;-85
2023/01/14 12:07:56;;;;;;;9.35;5.38;;;;;;;5.33;71.66;101443.59;4941636;28;20061;-87
2023/01/14 12:10:38;;;;;;;13.55;6.50;;;;;;;5.40;72.26;101460.00;4950744;28;20054;-86
2023/01/14 12:19:20;;;;;;;13.30;7.00;;;;;;;5.99;70.45;101476.25;4967224;28;20041;-89
2023/01/14 12:22:40;;;;;;;11.90;7.13;;;;;;;5.93;70.05;101480.19;4962591;28;20058;-89
2023/01/14 12:26:18;;;;;;;;;;;;;;;;;;;;;
2023/01/14 12:28:54;;;;;;;14.50;6.65;;;;;;;5.40;71.29;101441.34;4937153;28;20129;-87
2023/01/14 12:31:36;;;;;;;13.30;6.80;;;;;;;5.49;71.23;101454.03;4962139;28;20114;-87
2023/01/14 12:34:24;;;;;;;13.73;7.78;;;;;;;5.58;71.02;101463.19;4983268;28;20041;-84
2023/01/14 12:37:18;;;;;;;17.10;8.77;;;;;;;5.47;71.63;101479.94;4945197;28;20039;-88
2023/01/14 12:46:03;;;;;;;18.58;8.48;;;;;;;5.26;71.82;101453.81;4946670;29;20111;-86
2023/01/14 12:48:33;;;;;;;14.98;8.30;;;;;;;5.24;73.02;101481.56;4952342;29;20050;-86
2023/01/14 12:51:04;;;;;;;16.88;9.05;;;;;;;5.22;72.03;101465.69;4950792;29;20093;-86
2023/01/14 12:53:43;;;;;;;16.15;9.52;;;;;;;5.22;71.96;101473.69;4925866;29;20126;-86
2023/01/14 12:56:16;;;;;;;14.40;9.30;;;;;;;5.27;72.57;101492.88;4942234;29;20048;-88
2023/01/14 12:58:52;;;;;;;18.65;9.02;;;;;;;4.99;73.25;101466.41;4941803;29;20107;-86
2023/01/14 13:01:22;;;;;;;13.18;7.95;;;;;;;5.14;73.38;101492.00;4944201;29;20058;-90
2023/01/14 13:03:52;;;;;;;17.90;9.70;;;;;;;4.96;73.87;101469.28;4951199;29;20040;-88
2023/01/14 13:06:39;;;;;;;18.10;10.18;;;;;;;5.22;73.56;101494.13;4934410;29;20055;-88
2023/01/14 13:09:09;;;;;;;20.50;11.73;;;;;;;5.14;73.59;101499.16;4950199;29;20063;-86
2023/01/14 13:11:50;;;;;;;18.70;10.60;;;;;;;4.74;74.24;101456.56;4955769;29;20071;-87
2023/01/14 13:14:39;;;;;;;23.52;12.38;;;;;;;4.86;74.39;101477.03;4955808;29;20124;-89
2023/01/14 13:20:28;;;;;;;14.48;7.85;;;;;;;4.74;74.55;101473.41;5496673;23;20046;31
2023/01/14 13:23:20;;;;;;;18.10;8.38;;;;;;;4.86;74.53;101501.03;5042525;23;20046;-85
2023/01/14 13:25:45;;;;;;;19.35;10.05;;;;;;;4.87;74.84;101510.75;5024459;28;20042;-89
2023/01/14 13:28:23;;;;;;;19.15;9.77;;;;;;;4.80;75.26;101494.31;5029712;28;20045;-86
2023/01/14 13:31:04;;;;;;;14.75;8.23;;;;;;;4.89;74.93;101508.81;5034455;28;20045;-85
2023/01/14 13:33:32;;;;;;;13.18;7.97;;;;;;;4.73;75.18;101493.00;5023457;28;20482;-87
2023/01/14 13:36:12;;;;;;;18.75;8.15;;;;;;;4.95;75.15;101515.53;4996255;28;20045;-85
2023/01/14 13:39:03;;;;;;;11.88;6.95;;;;;;;4.78;74.48;101490.88;5035740;28;20033;-89
2023/01/14 13:41:59;;;;;;;12.65;7.38;;;;;;;4.91;74.00;101484.72;5034419;28;20506;-88
2023/01/14 13:44:45;;;;;;;18.80;8.38;;;;;;;4.70;74.75;101477.22;5043309;28;20273;-87
2023/01/14 13:47:25;;;;;;;13.15;7.53;;;;;;;4.79;74.49;101487.25;5023447;28;20029;-87
2023/01/14 13:49:57;;;;;;;14.43;8.15;;;;;;;4.90;74.93;101512.34;5036396;28;20131;-88
2023/01/14 13:52:25;;;;;;;17.48;8.65;;;;;;;4.58;75.15;101483.38;5036769;28;20057;-88
2023/01/14 13:55:03;;;;;;;22.67;8.75;;;;;;;4.49;75.26;101478.66;5010804;28;20139;-87
2023/01/14 13:57:37;;;;;;;14.43;7.72;;;;;;;4.41;76.39;101514.63;5023051;28;20501;-87
2023/01/14 14:00:23;;;;;;;15.07;8.25;;;;;;;4.46;76.31;101526.78;5013550;28;20461;-89
2023/01/14 14:03:17;;;;;;;19.27;8.68;;;;;;;4.49;76.32;101521.25;5034205;28;20037;-88
2023/01/14 14:06:41;;;;;;;17.23;8.38;;;;;;;4.50;76.04;101501.69;5028494;28;20052;-93
2023/01/14 14:14:38;;;;;;;19.65;9.43;;;;;;;4.54;76.25;101525.34;5023666;22;20042;-86
2023/01/14 14:17:27;;;;;;;23.20;10.52;;;;;;;4.63;76.33;101540.69;5025395;28;20044;-87
2023/01/14 14:19:55;;;;;;;19.48;9.13;;;;;;;4.32;76.43;101503.72;5002110;28;20045;-86
2023/01/14 14:23:05;;;;;;;21.85;8.88;;;;;;;4.46;77.03;101545.44;4982241;28;20066;-86
2023/01/14 14:25:38;;;;;;;15.05;7.00;;;;;;;4.49;76.69;101542.56;5024588;28;20044;-88
2023/01/14 14:28:21;;;;;;;15.77;7.75;;;;;;;4.42;77.00;101540.31;5002411;28;20069;-89
2023/01/14 14:31:16;;;;;;;16.10;8.55;;;;;;;4.40;77.27;101538.69;5013479;28;20125;-89
2023/01/14 14:34:25;;;;;;;16.13;8.13;;;;;;;4.18;77.24;101523.25;5016142;28;20050;-90
2023/01/14 14:36:58;;;;;;;16.48;7.88;;;;;;;4.25;77.06;101532.56;5020291;28;20041;-88
2023/01/14 14:39:43;;;;;;;18.60;6.50;;;;;;;4.03;77.57;101517.13;4978358;28;20067;-86
2023/01/14 14:42:23;;;;;;;14.80;8.20;;;;;;;3.95;77.70;101514.91;5008914;28;20030;-87
2023/01/14 14:45:24;;;;;;;22.17;7.57;;;;;;;4.18;77.24;101531.25;5062576;23;20080;-84
2023/01/14 14:47:51;;;;;;;19.15;8.65;;;;;;;4.12;77.34;101511.22;5018556;28;20148;-86
2023/01/14 14:50:28;;;;;;;15.50;6.70;;;;;;;4.11;77.31;101521.94;5001461;28;20120;-88
2023/01/14 14:52:55;;;;;;;13.88;6.50;;;;;;;4.17;77.34;101535.72;4993931;28;20049;-87
2023/01/14 14:55:23;;;;;;;12.60;5.80;;;;;;;4.21;77.23;101534.56;5013364;28;20045;-91
2023/01/14 14:58:43;;;;;;;;;;;;;;;;;;;;;
2023/01/14 15:01:32;;;;;;;10.85;5.63;;;;;;;4.41;77.00;101567.88;5006377;28;20080;-91
2023/01/14 15:04:20;;;;;;;19.15;9.68;;;;;;;4.25;76.31;101537.88;4974091;28;20371;-84
2023/01/14 15:06:54;;;;;;;30.65;16.40;;;;;;;4.26;76.83;101560.03;5003237;28;20026;-84
2023/01/14 15:09:32;;;;;;;;;;;;;;;;;;;;;
2023/01/14 15:12:00;;;;;;;16.58;8.00;;;;;;;4.22;76.80;101535.41;4984769;28;20189;-87
2023/01/14 15:14:38;;;;;;;17.33;7.50;;;;;;;4.26;77.29;101563.56;4988552;28;20037;-86
2023/01/14 15:18:31;;;;;;;13.40;5.97;;;;;;;3.94;78.02;101533.66;4980034;28;20161;-89
2023/01/14 15:21:22;;;;;;;12.35;5.18;;;;;;;4.00;77.88;101549.22;5013502;28;20041;-87
2023/01/14 15:24:07;;;;;;;11.15;5.70;;;;;;;3.84;78.12;101535.16;5016267;28;20026;-90
2023/01/14 15:26:35;;;;;;;10.25;5.53;;;;;;;3.82;78.67;101553.91;5018353;28;20407;-87
2023/01/14 15:29:02;;;;;;;10.45;5.47;;;;;;;4.06;78.61;101577.28;4995329;28;20049;-86
2023/01/14 15:31:48;;;;;;;17.25;8.65;;;;;;;3.97;78.70;101552.09;4986532;28;20041;-87
2023/01/14 15:34:14;;;;;;;19.15;7.20;;;;;;;4.14;78.69;101590.94;5007840;28;20048;-87
2023/01/14 15:36:44;;;;;;;20.05;8.20;;;;;;;4.01;78.59;101583.72;5054607;22;20073;-87
2023/01/14 15:39:24;;;;;;;23.25;9.07;;;;;;;4.12;78.55;101587.50;5023322;28;20228;-87
2023/01/14 15:42:21;;;;;;;18.90;9.40;;;;;;;3.89;78.93;101555.22;5024503;28;20045;-86
2023/01/14 15:45:04;;;;;;;23.00;9.75;;;;;;;3.83;78.68;101560.94;5029730;28;20088;-88
2023/01/14 15:48:08;;;;;;;25.15;9.68;;;;;;;3.78;78.70;101565.69;5016331;28;20040;-89
2023/01/14 15:50:41;;;;;;;25.90;10.18;;;;;;;4.10;78.87;101600.94;5025162;28;20045;-85
2023/01/14 15:53:27;;;;;;;22.48;10.02;;;;;;;4.01;78.62;101578.41;4994333;28;20052;-85
2023/01/14 15:56:14;;;;;;;;;;;;;;;4.30;78.31;101602.31;4993226;28;20501;-87
2023/01/14 15:58:55;;;;;;;18.98;9.55;;;;;;;4.29;78.21;101610.44;5030174;28;19901;-84
2023/01/14 16:01:28;;;;;;;23.25;9.88;;;;;;;4.14;78.37;101604.25;5030715;28;20038;-86
2023/01/14 16:09:33;;;;;;;22.90;9.90;;;;;;;3.96;79.18;101587.63;5352608;23;20078;-87
2023/01/14 16:11:59;;;;;;;22.30;9.98;;;;;;;3.93;79.63;101594.00;4969995;28;20129;-86
2023/01/14 16:14:37;;;;;;;19.90;9.30;;;;;;;3.98;79.35;101605.22;4941789;29;20130;-87
2023/01/14 16:17:23;;;;;;;18.60;9.38;;;;;;;3.90;79.43;101582.69;4935067;28;20071;-87
2023/01/14 16:19:57;;;;;;;19.83;9.68;;;;;;;3.74;80.36;101585.44;4956959;29;20036;-86
2023/01/14 16:22:33;;;;;;;21.02;10.25;;;;;;;3.79;80.41;101593.97;4952251;29;20040;-88
2023/01/14 16:24:58;;;;;;;;;;;;;;;4.06;80.39;101625.16;4944407;29;20043;-84
2023/01/14 16:27:30;;;;;;;20.83;9.05;;;;;;;3.83;80.17;101576.88;4932270;29;19982;-85
2023/01/14 16:30:03;;;;;;;17.67;9.38;;;;;;;4.02;80.01;101597.88;4946117;29;20078;-88
2023/01/14 16:32:38;;;;;;;19.52;9.75;;;;;;;4.11;79.45;101625.72;4935170;29;20047;-87
2023/01/14 16:35:27;;;;;;;19.20;9.80;;;;;;;4.05;79.66;101600.38;4954949;29;20103;-88
2023/01/14 16:37:57;;;;;;;20.55;9.85;;;;;;;4.16;79.68;101631.63;4954154;29;20042;-87
2023/01/14 16:40:33;;;;;;;15.98;7.85;;;;;;;3.98;79.15;101602.56;4954118;29;20098;-86
2023/01/14 16:43:02;;;;;;;17.63;6.95;;;;;;;4.09;78.35;101609.00;4996411;23;20043;-87
2023/01/14 16:45:28;;;;;;;13.70;7.30;;;;;;;4.12;78.72;101624.78;4995883;28;20054;-87
2023/01/14 16:48:03;;;;;;;15.65;7.32;;;;;;;4.33;78.76;101639.41;4939655;28;20046;-90
2023/01/14 16:50:30;;;;;;;10.30;6.28;;;;;;;4.39;78.26;101644.34;4980662;28;20064;-86
2023/01/14 16:52:56;;;;;;;13.00;6.50;;;;;;;4.29;77.82;101616.59;4991395;28;20038;-86